Sirios Cement IV — 9HQE8 — position and weather

sailwx.info

Track history (hours):
 
Tides and Currents Weather Stations Pressure Air Temp Water Temp Dewpoint Dewpoint Depression Visibility Wind Speed Wind Dir Waves Ship Positions

Sirios Cement IV

Last reported at 2016-Aug-25 03:33 UTC. Time now 2016-Aug-25 04:30 UTC.
Position N 45°28' E 012°15'.

Length 134 m; draft 8.5 m.

Type: Cargo ship. MMSI: 256278000.

Date/timePositionNaut miles runAvg speedWind from/ knotsBaromVisibWave heightAir tempDewpointWater temp
2016-Aug-25 03:33N 45°28' E 012°15'0 0.0
2016-Aug-25 02:33N 45°28' E 012°15'0 0.0
2016-Aug-25 01:33N 45°28' E 012°15'0 0.0
2016-Aug-25 00:33N 45°28' E 012°15'0 0.0
2016-Aug-24 23:33N 45°28' E 012°15'0 0.0
2016-Aug-24 22:33N 45°28' E 012°15'0 0.0
2016-Aug-24 21:33N 45°28' E 012°15'0 0.0
2016-Aug-24 20:33N 45°28' E 012°15'0 0.0
2016-Aug-24 19:33N 45°28' E 012°15'0 0.0
2016-Aug-24 18:33N 45°28' E 012°15'0 0.0
2016-Aug-24 15:33N 45°28' E 012°15'0 0.0
2016-Aug-24 14:33N 45°28' E 012°15'0 0.0
2016-Aug-24 08:09N 45°28' E 012°15'0 0.0
2016-Aug-24 06:15N 45°28' E 012°15'0 0.0
2016-Aug-24 04:33N 45°28' E 012°15'0 0.0
2016-Aug-24 03:33N 45°28' E 012°15'0 0.0
2016-Aug-24 02:33N 45°28' E 012°15'0 0.0
2016-Aug-24 01:30N 45°28' E 012°15'0 0.0
2016-Aug-24 00:30N 45°28' E 012°15'0 0.0
2016-Aug-23 23:33N 45°28' E 012°15'0 0.0
2016-Aug-23 22:30N 45°28' E 012°15'0 0.0
2016-Aug-23 21:33N 45°28' E 012°15'0 0.0
2016-Aug-23 20:33N 45°28' E 012°15'0 0.0
2016-Aug-23 19:27N 45°28' E 012°15'0 0.0
2016-Aug-23 18:33N 45°28' E 012°15'0 0.0
2016-Aug-23 17:27N 45°28' E 012°15'0 0.0
2016-Aug-23 16:21N 45°28' E 012°15'0 0.0
2016-Aug-23 15:33N 45°28' E 012°15'0 0.0
2016-Aug-23 14:27N 45°28' E 012°15'0 0.0
2016-Aug-23 04:33N 45°28' E 012°15'0 0.0
2016-Aug-23 03:33N 45°28' E 012°15'0 0.0
2016-Aug-23 02:33N 45°28' E 012°15'0 0.0
2016-Aug-23 01:30N 45°28' E 012°15'0 0.0
2016-Aug-23 00:30N 45°28' E 012°15'0 0.0
2016-Aug-22 23:33N 45°28' E 012°15'0 0.0
2016-Aug-22 22:33N 45°28' E 012°15'0 0.0
2016-Aug-22 21:33N 45°28' E 012°15'0 0.0
2016-Aug-22 20:27N 45°28' E 012°15'0 0.0
2016-Aug-22 19:30N 45°28' E 012°15'0 0.0
2016-Aug-22 18:33N 45°28' E 012°15'0 0.0
2016-Aug-22 17:30N 45°28' E 012°15'1 0.1
2016-Aug-22 06:25N 45°27' E 012°16'6 7.1
2016-Aug-22 05:33N 45°21' E 012°16'5 4.9
2016-Aug-22 04:33N 45°21' E 012°23'1 1.4
2016-Aug-22 03:31N 45°22' E 012°24'0 0.0
2016-Aug-22 02:31N 45°22' E 012°24'0 0.0
2016-Aug-22 01:31N 45°22' E 012°24'0 0.0
2016-Aug-22 00:31N 45°22' E 012°24'0 0.0
2016-Aug-21 23:31N 45°22' E 012°24'0 0.0
2016-Aug-21 22:31N 45°22' E 012°24'0 0.0
2016-Aug-21 21:31N 45°22' E 012°24'0 0.0
2016-Aug-21 20:31N 45°22' E 012°24'0 0.1
2016-Aug-21 19:31N 45°22' E 012°24'0 0.2
2016-Aug-21 18:31N 45°22' E 012°24'0 0.0
2016-Aug-21 17:31N 45°22' E 012°24'0 0.0
2016-Aug-21 16:31N 45°22' E 012°24'0 0.0
2016-Aug-21 15:31N 45°22' E 012°24'0 0.0
2016-Aug-21 14:31N 45°22' E 012°24'0 0.0
2016-Aug-21 13:31N 45°22' E 012°24'0 0.0
2016-Aug-21 12:33N 45°22' E 012°24'0 0.0
2016-Aug-21 11:33N 45°22' E 012°24'0 0.0
2016-Aug-21 10:33N 45°22' E 012°24'0 0.0
2016-Aug-21 09:33N 45°22' E 012°24'0 0.1
2016-Aug-21 08:33N 45°22' E 012°24'4 4.2
2016-Aug-21 07:33N 45°19' E 012°28'10 9.8
2016-Aug-21 06:33N 45°13' E 012°39'  
Track history (hours):
 
Tides and Currents Weather Stations Pressure Air Temp Water Temp Dewpoint Dewpoint Depression Visibility Wind Speed Wind Dir Waves Ship Positions

Sirios Cement IV

Last reported at 2016-Aug-25 03:33 UTC. Time now 2016-Aug-25 04:30 UTC.
Position N 45°28' E 012°15'.

Length 134 m; draft 8.5 m.

Type: Cargo ship. MMSI: 256278000.

Date/timePositionNaut miles runAvg speedWind from/ knotsBaromVisibWave heightAir tempDewpointWater temp
2016-Aug-25 03:33N 45°28' E 012°15'0 0.0
2016-Aug-25 02:33N 45°28' E 012°15'0 0.0
2016-Aug-25 01:33N 45°28' E 012°15'0 0.0
2016-Aug-25 00:33N 45°28' E 012°15'0 0.0
2016-Aug-24 23:33N 45°28' E 012°15'0 0.0
2016-Aug-24 22:33N 45°28' E 012°15'0 0.0
2016-Aug-24 21:33N 45°28' E 012°15'0 0.0
2016-Aug-24 20:33N 45°28' E 012°15'0 0.0
2016-Aug-24 19:33N 45°28' E 012°15'0 0.0
2016-Aug-24 18:33N 45°28' E 012°15'0 0.0
2016-Aug-24 15:33N 45°28' E 012°15'0 0.0
2016-Aug-24 14:33N 45°28' E 012°15'0 0.0
2016-Aug-24 08:09N 45°28' E 012°15'0 0.0
2016-Aug-24 06:15N 45°28' E 012°15'0 0.0
2016-Aug-24 04:33N 45°28' E 012°15'0 0.0
2016-Aug-24 03:33N 45°28' E 012°15'0 0.0
2016-Aug-24 02:33N 45°28' E 012°15'0 0.0
2016-Aug-24 01:30N 45°28' E 012°15'0 0.0
2016-Aug-24 00:30N 45°28' E 012°15'0 0.0
2016-Aug-23 23:33N 45°28' E 012°15'0 0.0
2016-Aug-23 22:30N 45°28' E 012°15'0 0.0
2016-Aug-23 21:33N 45°28' E 012°15'0 0.0
2016-Aug-23 20:33N 45°28' E 012°15'0 0.0
2016-Aug-23 19:27N 45°28' E 012°15'0 0.0
2016-Aug-23 18:33N 45°28' E 012°15'0 0.0
2016-Aug-23 17:27N 45°28' E 012°15'0 0.0
2016-Aug-23 16:21N 45°28' E 012°15'0 0.0
2016-Aug-23 15:33N 45°28' E 012°15'0 0.0
2016-Aug-23 14:27N 45°28' E 012°15'0 0.0
2016-Aug-23 04:33N 45°28' E 012°15'0 0.0
2016-Aug-23 03:33N 45°28' E 012°15'0 0.0
2016-Aug-23 02:33N 45°28' E 012°15'0 0.0
2016-Aug-23 01:30N 45°28' E 012°15'0 0.0
2016-Aug-23 00:30N 45°28' E 012°15'0 0.0
2016-Aug-22 23:33N 45°28' E 012°15'0 0.0
2016-Aug-22 22:33N 45°28' E 012°15'0 0.0
2016-Aug-22 21:33N 45°28' E 012°15'0 0.0
2016-Aug-22 20:27N 45°28' E 012°15'0 0.0
2016-Aug-22 19:30N 45°28' E 012°15'0 0.0
2016-Aug-22 18:33N 45°28' E 012°15'0 0.0
2016-Aug-22 17:30N 45°28' E 012°15'1 0.1
2016-Aug-22 06:25N 45°27' E 012°16'6 7.1
2016-Aug-22 05:33N 45°21' E 012°16'5 4.9
2016-Aug-22 04:33N 45°21' E 012°23'1 1.4
2016-Aug-22 03:31N 45°22' E 012°24'0 0.0
2016-Aug-22 02:31N 45°22' E 012°24'0 0.0
2016-Aug-22 01:31N 45°22' E 012°24'0 0.0
2016-Aug-22 00:31N 45°22' E 012°24'0 0.0
2016-Aug-21 23:31N 45°22' E 012°24'0 0.0
2016-Aug-21 22:31N 45°22' E 012°24'0 0.0
2016-Aug-21 21:31N 45°22' E 012°24'0 0.0
2016-Aug-21 20:31N 45°22' E 012°24'0 0.1
2016-Aug-21 19:31N 45°22' E 012°24'0 0.2
2016-Aug-21 18:31N 45°22' E 012°24'0 0.0
2016-Aug-21 17:31N 45°22' E 012°24'0 0.0
2016-Aug-21 16:31N 45°22' E 012°24'0 0.0
2016-Aug-21 15:31N 45°22' E 012°24'0 0.0
2016-Aug-21 14:31N 45°22' E 012°24'0 0.0
2016-Aug-21 13:31N 45°22' E 012°24'0 0.0
2016-Aug-21 12:33N 45°22' E 012°24'0 0.0
2016-Aug-21 11:33N 45°22' E 012°24'0 0.0
2016-Aug-21 10:33N 45°22' E 012°24'0 0.0
2016-Aug-21 09:33N 45°22' E 012°24'0 0.1
2016-Aug-21 08:33N 45°22' E 012°24'4 4.2
2016-Aug-21 07:33N 45°19' E 012°28'10 9.8
2016-Aug-21 06:33N 45°13' E 012°39'  

Dump ship's entire track history